createdAt,value
2022-10-11T00:03:22.323Z,8.69
2022-10-11T00:08:26.231Z,8.70
2022-10-11T00:13:29.124Z,8.58
2022-10-11T00:18:31.702Z,8.54
2022-10-11T00:23:36.320Z,8.55
2022-10-11T00:28:39.337Z,8.52
2022-10-11T00:33:41.907Z,8.43
2022-10-11T00:38:46.231Z,8.46
2022-10-11T00:43:48.774Z,8.38
2022-10-11T00:48:56.352Z,8.40
2022-10-11T00:54:00.984Z,8.36
2022-10-11T00:59:05.814Z,8.24
2022-10-11T01:04:08.399Z,8.27
2022-10-11T01:09:13.435Z,8.18
2022-10-11T01:14:40.474Z,8.14
2022-10-11T01:19:54.526Z,8.03
2022-10-11T01:25:13.272Z,8.02
2022-10-11T01:30:25.619Z,7.98
2022-10-11T01:35:31.624Z,7.96
2022-10-11T01:40:36.804Z,7.98
2022-10-11T01:45:41.445Z,7.89
2022-10-11T01:50:47.056Z,7.88
2022-10-11T01:55:52.515Z,7.80
2022-10-11T02:00:59.952Z,7.87
2022-10-11T02:06:07.161Z,7.90
2022-10-11T02:11:14.629Z,7.86
2022-10-11T02:16:20.961Z,7.79
2022-10-11T02:21:23.820Z,7.74
2022-10-11T02:26:29.078Z,7.72
2022-10-11T02:31:34.622Z,7.70
2022-10-11T02:36:44.620Z,7.60
2022-10-11T02:41:47.646Z,7.55
2022-10-11T02:46:51.710Z,7.51
2022-10-11T02:51:56.057Z,7.56
2022-10-11T02:56:58.664Z,7.52
2022-10-11T03:02:02.641Z,7.53
2022-10-11T03:07:05.225Z,7.40
2022-10-11T03:12:08.234Z,7.29
2022-10-11T03:17:35.051Z,7.21
2022-10-11T03:22:34.754Z,7.26
2022-10-11T03:27:37.305Z,7.24
2022-10-11T03:32:41.234Z,7.24
2022-10-11T03:37:43.754Z,7.23
2022-10-11T03:42:46.274Z,7.26
2022-10-11T03:47:50.259Z,7.23
2022-10-11T03:52:52.802Z,7.19
2022-10-11T03:57:55.342Z,7.22
2022-10-11T04:02:59.251Z,7.11
2022-10-11T04:08:01.804Z,7.25
2022-10-11T04:13:04.347Z,7.07
2022-10-11T04:18:08.683Z,7.14
2022-10-11T04:23:11.214Z,7.18
2022-10-11T04:28:13.743Z,7.06
2022-10-11T04:33:17.624Z,7.09
2022-10-11T04:38:20.179Z,6.97
2022-10-11T04:43:22.803Z,7.01
2022-10-11T04:48:26.744Z,6.79
2022-10-11T04:53:29.350Z,6.91
2022-10-11T04:58:33.337Z,6.95
2022-10-11T05:03:37.458Z,6.82
2022-10-11T05:08:40.004Z,6.72
2022-10-11T05:13:42.917Z,6.84
2022-10-11T05:18:46.758Z,6.83
2022-10-11T05:23:51.176Z,6.68
2022-10-11T05:28:53.929Z,6.82
2022-10-11T05:33:57.884Z,6.88
2022-10-11T05:39:00.442Z,6.88
2022-10-11T05:44:03.003Z,6.92
2022-10-11T05:49:07.014Z,6.99
2022-10-11T05:54:09.654Z,6.97
2022-10-11T05:59:12.193Z,6.97
2022-10-11T06:04:16.573Z,6.93
2022-10-11T06:09:19.201Z,7.01
2022-10-11T06:14:21.781Z,7.14
2022-10-11T06:19:25.735Z,7.17
2022-10-11T06:24:28.413Z,6.98
2022-10-11T06:29:30.949Z,7.14
2022-10-11T06:34:34.854Z,7.06
2022-10-11T06:39:37.399Z,7.06
2022-10-11T06:44:40.340Z,7.24
2022-10-11T06:49:44.240Z,7.15
2022-10-11T06:54:46.777Z,7.29
2022-10-11T06:59:49.338Z,7.37
2022-10-11T07:04:53.206Z,7.36
2022-10-11T07:09:55.760Z,7.15
2022-10-11T07:14:58.282Z,7.43
2022-10-11T07:20:02.172Z,7.48
2022-10-11T07:25:05.555Z,7.60
2022-10-11T07:30:09.107Z,7.61
2022-10-11T07:35:13.019Z,7.71
2022-10-11T07:40:15.789Z,7.69
2022-10-11T07:45:18.337Z,7.96
2022-10-11T07:50:22.278Z,8.09
2022-10-11T07:55:25.507Z,8.02
2022-10-11T08:00:28.059Z,8.10
2022-10-11T08:05:32.098Z,8.06
2022-10-11T08:10:38.343Z,8.45
2022-10-11T08:15:41.024Z,8.52
2022-10-11T08:20:45.062Z,8.66
2022-10-11T08:25:49.138Z,8.76
2022-10-11T08:30:52.967Z,8.90
2022-10-11T08:35:57.295Z,8.73
2022-10-11T08:41:00.833Z,8.82
2022-10-11T08:46:05.426Z,8.97
2022-10-11T08:51:22.084Z,8.96
2022-10-11T08:56:25.444Z,9.04
2022-10-11T09:01:29.054Z,9.17
2022-10-11T09:06:40.875Z,9.36
2022-10-11T09:11:54.882Z,9.40
2022-10-11T09:17:06.101Z,9.66
2022-10-11T09:22:16.582Z,9.73
2022-10-11T09:27:33.005Z,9.74
2022-10-11T09:32:45.750Z,10.60
2022-10-11T09:37:57.077Z,10.45
2022-10-11T09:43:00.175Z,10.63
2022-10-11T09:48:03.675Z,10.47
2022-10-11T09:53:07.694Z,10.66
2022-10-11T09:58:27.729Z,10.81
2022-10-11T10:03:31.589Z,11.25
2022-10-11T10:08:36.085Z,11.30
2022-10-11T10:13:42.990Z,11.06
2022-10-11T10:18:51.409Z,11.33
2022-10-11T10:23:56.660Z,11.16
2022-10-11T10:29:02.603Z,11.79
2022-10-11T10:34:09.881Z,11.97
2022-10-11T10:39:22.932Z,11.82
2022-10-11T10:44:25.518Z,12.17
2022-10-11T10:49:54.259Z,11.96
2022-10-11T10:55:00.612Z,12.28
2022-10-11T11:00:10.248Z,12.38
2022-10-11T11:05:21.152Z,12.59
2022-10-11T11:10:29.671Z,12.72
2022-10-11T11:15:38.366Z,12.99
2022-10-11T11:20:58.486Z,12.93
2022-10-11T11:26:07.803Z,12.96
2022-10-11T11:31:21.016Z,12.69
2022-10-11T11:36:27.443Z,13.23
2022-10-11T11:41:32.113Z,13.29
2022-10-11T11:46:39.354Z,13.37
2022-10-11T11:51:46.043Z,13.20
2022-10-11T11:56:56.662Z,13.54
2022-10-11T12:02:21.014Z,13.42
2022-10-11T12:07:25.463Z,13.43
2022-10-11T12:12:31.914Z,13.59
2022-10-11T12:17:34.307Z,13.20
2022-10-11T12:22:40.034Z,13.46
2022-10-11T12:27:45.729Z,13.12
2022-10-11T12:32:51.029Z,12.58
2022-10-11T12:38:05.366Z,12.94
2022-10-11T12:43:31.668Z,13.01
2022-10-11T12:48:42.635Z,13.18
2022-10-11T12:54:24.892Z,13.14
2022-10-11T12:59:24.219Z,12.63
2022-10-11T13:04:28.739Z,12.60
2022-10-11T13:09:32.583Z,12.70
2022-10-11T13:14:38.683Z,13.14
2022-10-11T13:24:48.979Z,13.42
2022-10-11T13:29:54.736Z,13.37
2022-10-11T13:34:59.626Z,13.27
2022-10-11T13:40:02.425Z,13.47
2022-10-11T13:45:10.865Z,13.38
2022-10-11T13:50:23.906Z,13.41
2022-10-11T13:55:31.811Z,13.31
2022-10-11T14:00:38.165Z,13.33
2022-10-11T14:05:42.661Z,13.17
2022-10-11T14:10:46.670Z,13.08
2022-10-11T14:16:05.200Z,13.14
2022-10-11T14:21:31.248Z,13.14
2022-10-11T14:26:36.242Z,13.22
2022-10-11T14:31:41.979Z,13.17
2022-10-11T14:36:44.743Z,13.14
2022-10-11T14:41:47.758Z,13.04
2022-10-11T14:46:54.557Z,12.89
2022-10-11T14:51:58.727Z,12.96
2022-10-11T14:57:03.095Z,12.92
2022-10-11T15:02:08.939Z,12.85
2022-10-11T15:07:13.209Z,12.70
2022-10-11T15:12:15.748Z,12.71
2022-10-11T15:17:19.819Z,12.68
2022-10-11T15:22:22.390Z,12.61
2022-10-11T15:27:28.531Z,12.55
2022-10-11T15:32:32.386Z,12.50
2022-10-11T15:37:37.310Z,12.44
2022-10-11T15:42:41.281Z,12.41
2022-10-11T15:47:45.681Z,12.40
2022-10-11T15:52:48.249Z,12.31
2022-10-11T15:57:50.851Z,12.13
2022-10-11T16:02:55.515Z,12.08
2022-10-11T16:07:58.117Z,12.01
2022-10-11T16:13:00.852Z,11.89
2022-10-11T16:18:04.848Z,11.79
2022-10-11T16:23:07.540Z,11.68
2022-10-11T16:28:10.846Z,11.54
2022-10-11T16:33:14.803Z,11.36
2022-10-11T16:38:17.450Z,11.30
2022-10-11T16:43:20.039Z,11.20
2022-10-11T16:48:23.989Z,11.04
2022-10-11T16:53:26.650Z,11.03
2022-10-11T16:58:29.210Z,10.98
2022-10-11T17:03:33.083Z,10.88
2022-10-11T17:08:35.919Z,10.82
2022-10-11T17:13:38.553Z,10.71
2022-10-11T17:18:42.615Z,10.62
2022-10-11T17:23:45.283Z,10.52
2022-10-11T17:28:47.953Z,10.29
2022-10-11T17:33:53.101Z,10.35
2022-10-11T17:38:55.661Z,10.27
2022-10-11T17:43:58.219Z,10.00
2022-10-11T17:49:04.621Z,10.00
2022-10-11T17:54:12.160Z,9.92
2022-10-11T17:59:17.025Z,9.76
2022-10-11T18:04:21.828Z,9.78
2022-10-11T18:09:25.056Z,9.69
2022-10-11T18:14:27.700Z,9.50
2022-10-11T18:19:31.913Z,9.35
2022-10-11T18:24:34.479Z,9.32
2022-10-11T18:29:37.016Z,9.18
2022-10-11T18:34:41.125Z,9.19
2022-10-11T18:39:43.693Z,9.18
2022-10-11T18:44:46.387Z,8.99
2022-10-11T18:49:50.266Z,8.85
2022-10-11T18:54:53.224Z,8.89
2022-10-11T18:59:56.172Z,8.89
2022-10-11T19:05:00.463Z,8.80
2022-10-11T19:10:03.947Z,8.77
2022-10-11T19:15:07.202Z,8.63
2022-10-11T19:20:12.410Z,8.73
2022-10-11T19:25:15.201Z,8.55
2022-10-11T19:30:17.836Z,8.38
2022-10-11T19:35:21.939Z,8.55
2022-10-11T19:40:24.481Z,8.47
2022-10-11T19:45:27.504Z,8.39
2022-10-11T19:50:31.411Z,8.19
2022-10-11T19:55:34.948Z,8.15
2022-10-11T20:00:37.490Z,8.09
2022-10-11T20:05:41.359Z,8.16
2022-10-11T20:10:43.906Z,7.88
2022-10-11T20:15:46.478Z,7.81
2022-10-11T20:20:53.730Z,7.73
2022-10-11T20:26:00.283Z,7.67
2022-10-11T20:31:04.866Z,7.63
2022-10-11T20:36:10.347Z,7.53
2022-10-11T20:41:15.042Z,7.61
2022-10-11T20:46:18.959Z,7.45
2022-10-11T20:51:23.547Z,7.49
2022-10-11T20:56:26.645Z,7.45
2022-10-11T21:01:30.843Z,7.31
2022-10-11T21:06:35.185Z,7.28
2022-10-11T21:11:37.736Z,7.21
2022-10-11T21:16:40.326Z,7.14
2022-10-11T21:21:50.897Z,7.17
2022-10-11T21:27:00.325Z,7.02
2022-10-11T21:32:03.231Z,7.05
2022-10-11T21:37:07.115Z,6.95
2022-10-11T21:42:09.633Z,6.88
2022-10-11T21:47:12.397Z,6.82
2022-10-11T21:52:16.255Z,6.83
2022-10-11T21:57:18.803Z,6.77
2022-10-11T22:02:21.504Z,6.75
2022-10-11T22:07:25.516Z,6.64
2022-10-11T22:12:28.035Z,6.70
2022-10-11T22:17:30.555Z,6.49
2022-10-11T22:22:34.699Z,6.61
2022-10-11T22:27:37.430Z,6.49
2022-10-11T22:32:40.045Z,6.47
2022-10-11T22:37:43.909Z,6.38
2022-10-11T22:42:46.904Z,6.39
2022-10-11T22:47:49.430Z,6.28
2022-10-11T22:52:53.293Z,6.12
2022-10-11T22:57:55.806Z,6.25
2022-10-11T23:02:58.414Z,6.24
2022-10-11T23:08:02.356Z,6.18
2022-10-11T23:13:05.096Z,6.18
2022-10-11T23:18:07.807Z,6.19
2022-10-11T23:23:11.733Z,6.11
2022-10-11T23:28:14.269Z,6.07
2022-10-11T23:33:16.839Z,5.98
2022-10-11T23:38:20.760Z,5.91
2022-10-11T23:43:23.678Z,5.93
2022-10-11T23:48:26.190Z,5.86
2022-10-11T23:53:30.074Z,5.88
2022-10-11T23:58:32.592Z,5.80
